Providence, Rhode Island
Traffic Map
Current Weather Conditions
Providence, Rhode Island
Few Clouds
Few Clouds
29°
Feels Like: 32°
Wind Chill: 29° Ceiling: Unl
Heat Index: 32° Visibility: 9mi
Dew Point: 21° Wind: 16mph
Humidity: 61% Direction: 220° (SW)
Pressure: 29.83in Gusts: 28mph
Raw Report DataKPVD 231951Z 22014G24KT 9SM FEW030 29/21 A2983 RMK AO2 SLP099 T02940211
Traffic Incident Summary
Active as of:
Severity:
Category:
InformationThere was an issue retrieving the traffic information for this location. Please try a different location or try again shortly.
Advertisements
Track Severe Weather on mobile